sensor_id;sensor_type;location;lat;lon;timestamp;temperature;humidity
20005;DHT22;68409;45.498;-73.582;2023-03-23T00:00:56;1.20;50.40
20005;DHT22;68409;45.498;-73.582;2023-03-23T00:03:22;1.10;50.60
20005;DHT22;68409;45.498;-73.582;2023-03-23T00:05:52;1.20;51.10
20005;DHT22;68409;45.498;-73.582;2023-03-23T00:08:19;1.10;51.30
20005;DHT22;68409;45.498;-73.582;2023-03-23T00:10:49;1.20;51.50
20005;DHT22;68409;45.498;-73.582;2023-03-23T00:13:19;1.20;51.70
20005;DHT22;68409;45.498;-73.582;2023-03-23T00:15:46;1.20;51.40
20005;DHT22;68409;45.498;-73.582;2023-03-23T00:18:15;1.20;51.60
20005;DHT22;68409;45.498;-73.582;2023-03-23T00:20:47;1.30;52.00
20005;DHT22;68409;45.498;-73.582;2023-03-23T00:23:16;1.30;52.00
20005;DHT22;68409;45.498;-73.582;2023-03-23T00:25:49;1.30;52.30
20005;DHT22;68409;45.498;-73.582;2023-03-23T00:28:16;1.20;52.70
20005;DHT22;68409;45.498;-73.582;2023-03-23T00:30:43;1.20;53.10
20005;DHT22;68409;45.498;-73.582;2023-03-23T00:33:10;1.20;53.10
20005;DHT22;68409;45.498;-73.582;2023-03-23T00:35:39;1.20;53.00
20005;DHT22;68409;45.498;-73.582;2023-03-23T00:38:06;1.20;53.10
20005;DHT22;68409;45.498;-73.582;2023-03-23T00:40:33;1.00;53.20
20005;DHT22;68409;45.498;-73.582;2023-03-23T00:43:02;1.10;53.30
20005;DHT22;68409;45.498;-73.582;2023-03-23T00:45:29;1.10;53.00
20005;DHT22;68409;45.498;-73.582;2023-03-23T00:47:55;1.00;53.00
20005;DHT22;68409;45.498;-73.582;2023-03-23T00:50:22;1.20;52.90
20005;DHT22;68409;45.498;-73.582;2023-03-23T00:52:48;1.30;53.10
20005;DHT22;68409;45.498;-73.582;2023-03-23T00:55:18;1.20;53.00
20005;DHT22;68409;45.498;-73.582;2023-03-23T00:57:44;1.30;52.80
20005;DHT22;68409;45.498;-73.582;2023-03-23T01:00:11;1.40;53.00
20005;DHT22;68409;45.498;-73.582;2023-03-23T01:02:37;1.30;52.90
20005;DHT22;68409;45.498;-73.582;2023-03-23T01:05:06;1.30;52.90
20005;DHT22;68409;45.498;-73.582;2023-03-23T01:07:32;1.20;53.20
20005;DHT22;68409;45.498;-73.582;2023-03-23T01:09:59;1.20;53.00
20005;DHT22;68409;45.498;-73.582;2023-03-23T01:12:26;1.20;53.50
20005;DHT22;68409;45.498;-73.582;2023-03-23T01:14:52;1.20;53.30
20005;DHT22;68409;45.498;-73.582;2023-03-23T01:17:18;1.20;53.30
20005;DHT22;68409;45.498;-73.582;2023-03-23T01:19:45;1.10;53.20
20005;DHT22;68409;45.498;-73.582;2023-03-23T01:22:11;1.10;53.30
20005;DHT22;68409;45.498;-73.582;2023-03-23T01:24:37;1.20;53.70
20005;DHT22;68409;45.498;-73.582;2023-03-23T01:27:03;1.20;53.40
20005;DHT22;68409;45.498;-73.582;2023-03-23T01:29:35;1.20;53.30
20005;DHT22;68409;45.498;-73.582;2023-03-23T01:32:02;1.20;53.40
20005;DHT22;68409;45.498;-73.582;2023-03-23T01:34:28;1.20;53.20
20005;DHT22;68409;45.498;-73.582;2023-03-23T01:36:55;1.10;53.70
20005;DHT22;68409;45.498;-73.582;2023-03-23T01:39:21;1.30;53.70
20005;DHT22;68409;45.498;-73.582;2023-03-23T01:41:47;1.10;53.30
20005;DHT22;68409;45.498;-73.582;2023-03-23T01:46:43;1.10;53.70
20005;DHT22;68409;45.498;-73.582;2023-03-23T01:49:13;1.20;53.70
20005;DHT22;68409;45.498;-73.582;2023-03-23T01:51:49;1.40;53.80
20005;DHT22;68409;45.498;-73.582;2023-03-23T01:54:19;1.20;53.50
20005;DHT22;68409;45.498;-73.582;2023-03-23T01:57:07;1.40;53.40
20005;DHT22;68409;45.498;-73.582;2023-03-23T01:59:36;1.30;53.50
20005;DHT22;68409;45.498;-73.582;2023-03-23T02:02:03;1.30;53.00
20005;DHT22;68409;45.498;-73.582;2023-03-23T02:04:30;1.10;52.80
20005;DHT22;68409;45.498;-73.582;2023-03-23T02:06:57;1.20;52.80
20005;DHT22;68409;45.498;-73.582;2023-03-23T02:09:25;1.20;53.00
20005;DHT22;68409;45.498;-73.582;2023-03-23T02:11:52;1.20;53.10
20005;DHT22;68409;45.498;-73.582;2023-03-23T02:14:20;1.30;53.10
20005;DHT22;68409;45.498;-73.582;2023-03-23T02:33:56;1.40;53.10
20005;DHT22;68409;45.498;-73.582;2023-03-23T02:36:38;1.50;52.80
20005;DHT22;68409;45.498;-73.582;2023-03-23T02:39:42;1.50;52.50
20005;DHT22;68409;45.498;-73.582;2023-03-23T02:42:15;1.40;52.60
20005;DHT22;68409;45.498;-73.582;2023-03-23T02:44:44;1.50;53.00
20005;DHT22;68409;45.498;-73.582;2023-03-23T02:47:29;1.50;53.10
20005;DHT22;68409;45.498;-73.582;2023-03-23T02:49:57;1.50;53.30
20005;DHT22;68409;45.498;-73.582;2023-03-23T02:52:31;1.50;53.30
20005;DHT22;68409;45.498;-73.582;2023-03-23T02:54:59;1.70;53.20
20005;DHT22;68409;45.498;-73.582;2023-03-23T02:57:27;1.60;53.50
20005;DHT22;68409;45.498;-73.582;2023-03-23T02:59:55;1.50;53.40
20005;DHT22;68409;45.498;-73.582;2023-03-23T03:02:26;1.50;53.70
20005;DHT22;68409;45.498;-73.582;2023-03-23T03:10:55;1.60;54.00
20005;DHT22;68409;45.498;-73.582;2023-03-23T03:19:15;1.70;53.50
20005;DHT22;68409;45.498;-73.582;2023-03-23T03:21:23;1.70;53.80
20005;DHT22;68409;45.498;-73.582;2023-03-23T03:23:54;1.70;54.20
20005;DHT22;68409;45.498;-73.582;2023-03-23T03:26:22;1.70;54.20
20005;DHT22;68409;45.498;-73.582;2023-03-23T03:28:53;1.60;53.70
20005;DHT22;68409;45.498;-73.582;2023-03-23T03:31:26;1.70;53.50
20005;DHT22;68409;45.498;-73.582;2023-03-23T03:33:54;1.80;53.20
20005;DHT22;68409;45.498;-73.582;2023-03-23T03:36:23;1.70;53.60
20005;DHT22;68409;45.498;-73.582;2023-03-23T03:38:52;1.60;54.20
20005;DHT22;68409;45.498;-73.582;2023-03-23T03:41:19;1.70;54.70
20005;DHT22;68409;45.498;-73.582;2023-03-23T03:43:46;1.60;55.30
20005;DHT22;68409;45.498;-73.582;2023-03-23T03:46:12;1.60;55.40
20005;DHT22;68409;45.498;-73.582;2023-03-23T03:48:38;1.70;55.70
20005;DHT22;68409;45.498;-73.582;2023-03-23T03:51:04;1.60;56.10
20005;DHT22;68409;45.498;-73.582;2023-03-23T03:53:31;1.60;55.70
20005;DHT22;68409;45.498;-73.582;2023-03-23T03:55:57;1.70;56.10
20005;DHT22;68409;45.498;-73.582;2023-03-23T03:58:26;1.60;56.10
20005;DHT22;68409;45.498;-73.582;2023-03-23T04:01:03;1.80;56.70
20005;DHT22;68409;45.498;-73.582;2023-03-23T04:03:29;1.90;56.50
20005;DHT22;68409;45.498;-73.582;2023-03-23T04:05:56;1.80;56.40
20005;DHT22;68409;45.498;-73.582;2023-03-23T04:08:22;1.80;56.40
20005;DHT22;68409;45.498;-73.582;2023-03-23T04:10:49;1.70;55.90
20005;DHT22;68409;45.498;-73.582;2023-03-23T04:13:16;1.70;56.10
20005;DHT22;68409;45.498;-73.582;2023-03-23T04:15:44;1.70;57.00
20005;DHT22;68409;45.498;-73.582;2023-03-23T04:18:10;1.60;56.40
20005;DHT22;68409;45.498;-73.582;2023-03-23T04:20:38;1.70;56.80
20005;DHT22;68409;45.498;-73.582;2023-03-23T04:23:05;1.50;56.30
20005;DHT22;68409;45.498;-73.582;2023-03-23T04:25:31;1.60;57.30
20005;DHT22;68409;45.498;-73.582;2023-03-23T04:27:58;1.60;57.80
20005;DHT22;68409;45.498;-73.582;2023-03-23T04:30:28;1.50;56.90
20005;DHT22;68409;45.498;-73.582;2023-03-23T04:32:55;1.60;56.90
20005;DHT22;68409;45.498;-73.582;2023-03-23T04:35:23;1.50;56.90
20005;DHT22;68409;45.498;-73.582;2023-03-23T04:37:53;1.60;56.70
20005;DHT22;68409;45.498;-73.582;2023-03-23T04:40:22;1.60;57.20
20005;DHT22;68409;45.498;-73.582;2023-03-23T04:42:48;1.70;57.20
20005;DHT22;68409;45.498;-73.582;2023-03-23T04:45:21;1.70;57.00
20005;DHT22;68409;45.498;-73.582;2023-03-23T04:47:52;1.60;56.60
20005;DHT22;68409;45.498;-73.582;2023-03-23T04:50:26;1.60;57.10
20005;DHT22;68409;45.498;-73.582;2023-03-23T04:52:53;1.50;57.20
20005;DHT22;68409;45.498;-73.582;2023-03-23T04:55:24;1.50;57.70
20005;DHT22;68409;45.498;-73.582;2023-03-23T04:57:51;1.50;57.30
20005;DHT22;68409;45.498;-73.582;2023-03-23T05:00:18;1.50;57.30
20005;DHT22;68409;45.498;-73.582;2023-03-23T05:02:47;1.50;57.20
20005;DHT22;68409;45.498;-73.582;2023-03-23T05:05:18;1.50;57.60
20005;DHT22;68409;45.498;-73.582;2023-03-23T05:07:44;1.40;57.90
20005;DHT22;68409;45.498;-73.582;2023-03-23T05:10:12;1.50;57.90
20005;DHT22;68409;45.498;-73.582;2023-03-23T05:12:39;1.50;57.90
20005;DHT22;68409;45.498;-73.582;2023-03-23T05:15:06;1.50;58.30
20005;DHT22;68409;45.498;-73.582;2023-03-23T05:17:34;1.40;58.70
20005;DHT22;68409;45.498;-73.582;2023-03-23T05:20:00;1.30;59.30
20005;DHT22;68409;45.498;-73.582;2023-03-23T05:22:28;1.40;59.80
20005;DHT22;68409;45.498;-73.582;2023-03-23T05:24:54;1.50;60.00
20005;DHT22;68409;45.498;-73.582;2023-03-23T05:27:20;1.60;59.20
20005;DHT22;68409;45.498;-73.582;2023-03-23T05:29:47;1.40;59.10
20005;DHT22;68409;45.498;-73.582;2023-03-23T05:32:16;1.50;59.40
20005;DHT22;68409;45.498;-73.582;2023-03-23T05:34:45;1.30;59.40
20005;DHT22;68409;45.498;-73.582;2023-03-23T05:37:12;1.30;60.00
20005;DHT22;68409;45.498;-73.582;2023-03-23T05:39:39;1.30;59.70
20005;DHT22;68409;45.498;-73.582;2023-03-23T05:42:06;1.40;59.50
20005;DHT22;68409;45.498;-73.582;2023-03-23T05:44:33;1.30;59.70
20005;DHT22;68409;45.498;-73.582;2023-03-23T05:46:59;1.30;59.80
20005;DHT22;68409;45.498;-73.582;2023-03-23T05:49:25;1.30;59.80
20005;DHT22;68409;45.498;-73.582;2023-03-23T05:51:52;1.30;59.90
20005;DHT22;68409;45.498;-73.582;2023-03-23T05:54:18;1.30;59.90
20005;DHT22;68409;45.498;-73.582;2023-03-23T05:56:44;1.50;59.20
20005;DHT22;68409;45.498;-73.582;2023-03-23T05:59:10;1.40;59.00
20005;DHT22;68409;45.498;-73.582;2023-03-23T06:01:37;1.40;59.00
20005;DHT22;68409;45.498;-73.582;2023-03-23T06:04:04;1.40;59.20
20005;DHT22;68409;45.498;-73.582;2023-03-23T06:06:30;1.30;59.50
20005;DHT22;68409;45.498;-73.582;2023-03-23T06:08:58;1.20;59.60
20005;DHT22;68409;45.498;-73.582;2023-03-23T06:11:25;1.20;60.00
20005;DHT22;68409;45.498;-73.582;2023-03-23T06:13:52;1.30;60.20
20005;DHT22;68409;45.498;-73.582;2023-03-23T06:16:19;1.40;60.20
20005;DHT22;68409;45.498;-73.582;2023-03-23T06:18:45;1.40;60.00
20005;DHT22;68409;45.498;-73.582;2023-03-23T06:21:12;1.40;60.10
20005;DHT22;68409;45.498;-73.582;2023-03-23T06:23:38;1.50;59.90
20005;DHT22;68409;45.498;-73.582;2023-03-23T06:26:07;1.50;59.90
20005;DHT22;68409;45.498;-73.582;2023-03-23T06:28:34;1.50;59.90
20005;DHT22;68409;45.498;-73.582;2023-03-23T06:31:05;1.50;59.70
20005;DHT22;68409;45.498;-73.582;2023-03-23T06:33:38;1.40;60.40
20005;DHT22;68409;45.498;-73.582;2023-03-23T06:36:06;1.40;59.90
20005;DHT22;68409;45.498;-73.582;2023-03-23T06:38:33;1.30;60.30
20005;DHT22;68409;45.498;-73.582;2023-03-23T06:40:59;1.40;60.00
20005;DHT22;68409;45.498;-73.582;2023-03-23T06:43:25;1.40;60.10
20005;DHT22;68409;45.498;-73.582;2023-03-23T06:45:51;1.50;60.00
20005;DHT22;68409;45.498;-73.582;2023-03-23T06:48:18;1.50;59.40
20005;DHT22;68409;45.498;-73.582;2023-03-23T06:50:45;1.60;59.10
20005;DHT22;68409;45.498;-73.582;2023-03-23T06:53:12;1.50;59.00
20005;DHT22;68409;45.498;-73.582;2023-03-23T06:55:38;1.50;58.90
20005;DHT22;68409;45.498;-73.582;2023-03-23T06:58:05;1.40;58.70
20005;DHT22;68409;45.498;-73.582;2023-03-23T07:00:32;1.40;58.90
20005;DHT22;68409;45.498;-73.582;2023-03-23T07:02:59;1.50;59.10
20005;DHT22;68409;45.498;-73.582;2023-03-23T07:05:25;1.50;59.50
20005;DHT22;68409;45.498;-73.582;2023-03-23T07:07:52;1.60;59.70
20005;DHT22;68409;45.498;-73.582;2023-03-23T07:10:18;1.60;60.10
20005;DHT22;68409;45.498;-73.582;2023-03-23T07:12:45;1.50;59.90
20005;DHT22;68409;45.498;-73.582;2023-03-23T07:15:11;1.60;59.40
20005;DHT22;68409;45.498;-73.582;2023-03-23T07:17:38;1.60;59.60
20005;DHT22;68409;45.498;-73.582;2023-03-23T07:20:06;1.70;59.30
20005;DHT22;68409;45.498;-73.582;2023-03-23T07:22:33;1.80;59.70
20005;DHT22;68409;45.498;-73.582;2023-03-23T07:24:59;1.70;59.50
20005;DHT22;68409;45.498;-73.582;2023-03-23T07:27:25;1.70;60.00
20005;DHT22;68409;45.498;-73.582;2023-03-23T07:29:52;1.60;60.20
20005;DHT22;68409;45.498;-73.582;2023-03-23T07:32:18;1.70;60.60
20005;DHT22;68409;45.498;-73.582;2023-03-23T07:34:47;1.70;60.90
20005;DHT22;68409;45.498;-73.582;2023-03-23T07:37:13;1.60;60.90
20005;DHT22;68409;45.498;-73.582;2023-03-23T07:39:39;1.50;60.90
20005;DHT22;68409;45.498;-73.582;2023-03-23T07:42:07;1.50;61.00
20005;DHT22;68409;45.498;-73.582;2023-03-23T07:44:34;1.80;61.50
20005;DHT22;68409;45.498;-73.582;2023-03-23T07:47:01;1.40;61.50
20005;DHT22;68409;45.498;-73.582;2023-03-23T07:49:27;1.40;61.80
20005;DHT22;68409;45.498;-73.582;2023-03-23T07:51:57;1.40;62.00
20005;DHT22;68409;45.498;-73.582;2023-03-23T07:54:24;1.40;62.30
20005;DHT22;68409;45.498;-73.582;2023-03-23T07:56:50;1.50;62.10
20005;DHT22;68409;45.498;-73.582;2023-03-23T07:59:16;1.40;62.30
20005;DHT22;68409;45.498;-73.582;2023-03-23T08:01:42;1.30;62.30
20005;DHT22;68409;45.498;-73.582;2023-03-23T08:04:08;1.40;63.00
20005;DHT22;68409;45.498;-73.582;2023-03-23T08:06:35;1.40;63.20
20005;DHT22;68409;45.498;-73.582;2023-03-23T08:09:02;1.30;63.40
20005;DHT22;68409;45.498;-73.582;2023-03-23T08:11:35;1.40;63.30
20005;DHT22;68409;45.498;-73.582;2023-03-23T08:14:01;1.30;63.70
20005;DHT22;68409;45.498;-73.582;2023-03-23T08:19:50;1.40;64.10
20005;DHT22;68409;45.498;-73.582;2023-03-23T08:22:18;1.50;64.60
20005;DHT22;68409;45.498;-73.582;2023-03-23T08:24:45;1.50;64.80
20005;DHT22;68409;45.498;-73.582;2023-03-23T08:27:11;1.50;65.00
20005;DHT22;68409;45.498;-73.582;2023-03-23T08:29:37;1.50;64.70
20005;DHT22;68409;45.498;-73.582;2023-03-23T08:32:04;1.50;64.90
20005;DHT22;68409;45.498;-73.582;2023-03-23T08:34:30;1.50;64.90
20005;DHT22;68409;45.498;-73.582;2023-03-23T08:36:57;1.40;65.00
20005;DHT22;68409;45.498;-73.582;2023-03-23T08:39:23;1.50;65.10
20005;DHT22;68409;45.498;-73.582;2023-03-23T08:41:50;1.50;64.90
20005;DHT22;68409;45.498;-73.582;2023-03-23T08:44:17;1.60;64.50
20005;DHT22;68409;45.498;-73.582;2023-03-23T08:46:43;1.60;64.20
20005;DHT22;68409;45.498;-73.582;2023-03-23T08:52:31;1.60;64.80
20005;DHT22;68409;45.498;-73.582;2023-03-23T08:54:57;1.80;65.20
20005;DHT22;68409;45.498;-73.582;2023-03-23T08:57:25;1.60;64.90
20005;DHT22;68409;45.498;-73.582;2023-03-23T08:59:51;1.50;65.00
20005;DHT22;68409;45.498;-73.582;2023-03-23T09:02:20;1.60;65.30
20005;DHT22;68409;45.498;-73.582;2023-03-23T09:04:46;1.50;65.70
20005;DHT22;68409;45.498;-73.582;2023-03-23T09:07:14;1.50;66.10
20005;DHT22;68409;45.498;-73.582;2023-03-23T09:09:41;1.40;66.40
20005;DHT22;68409;45.498;-73.582;2023-03-23T09:12:09;1.40;66.40
20005;DHT22;68409;45.498;-73.582;2023-03-23T09:14:36;1.50;66.50
20005;DHT22;68409;45.498;-73.582;2023-03-23T09:17:03;1.40;66.50
20005;DHT22;68409;45.498;-73.582;2023-03-23T09:19:30;1.40;66.70
20005;DHT22;68409;45.498;-73.582;2023-03-23T09:21:59;1.30;67.00
20005;DHT22;68409;45.498;-73.582;2023-03-23T09:24:26;1.30;67.40
20005;DHT22;68409;45.498;-73.582;2023-03-23T09:26:52;1.20;67.50
20005;DHT22;68409;45.498;-73.582;2023-03-23T09:29:19;1.40;67.50
20005;DHT22;68409;45.498;-73.582;2023-03-23T09:31:46;1.30;67.60
20005;DHT22;68409;45.498;-73.582;2023-03-23T09:34:14;1.30;67.80
20005;DHT22;68409;45.498;-73.582;2023-03-23T09:36:42;1.20;68.10
20005;DHT22;68409;45.498;-73.582;2023-03-23T09:39:09;1.10;68.40
20005;DHT22;68409;45.498;-73.582;2023-03-23T09:44:43;1.00;69.40
20005;DHT22;68409;45.498;-73.582;2023-03-23T09:47:41;1.00;69.90
20005;DHT22;68409;45.498;-73.582;2023-03-23T09:50:17;1.10;70.00
20005;DHT22;68409;45.498;-73.582;2023-03-23T09:53:10;1.20;70.30
20005;DHT22;68409;45.498;-73.582;2023-03-23T09:55:39;1.10;70.20
20005;DHT22;68409;45.498;-73.582;2023-03-23T09:58:25;1.10;70.70
20005;DHT22;68409;45.498;-73.582;2023-03-23T10:03:45;1.10;71.40
20005;DHT22;68409;45.498;-73.582;2023-03-23T10:06:17;1.00;71.60
20005;DHT22;68409;45.498;-73.582;2023-03-23T10:08:52;1.20;71.40
20005;DHT22;68409;45.498;-73.582;2023-03-23T10:11:41;1.00;71.90
20005;DHT22;68409;45.498;-73.582;2023-03-23T10:17:09;1.10;71.70
20005;DHT22;68409;45.498;-73.582;2023-03-23T10:19:54;0.80;71.50
20005;DHT22;68409;45.498;-73.582;2023-03-23T10:22:32;0.80;71.90
20005;DHT22;68409;45.498;-73.582;2023-03-23T10:25:19;1.00;71.50
20005;DHT22;68409;45.498;-73.582;2023-03-23T10:27:53;1.00;71.20
20005;DHT22;68409;45.498;-73.582;2023-03-23T10:30:46;1.00;71.40
20005;DHT22;68409;45.498;-73.582;2023-03-23T10:37:21;0.80;70.80
20005;DHT22;68409;45.498;-73.582;2023-03-23T10:39:20;0.90;70.70
20005;DHT22;68409;45.498;-73.582;2023-03-23T10:41:47;1.00;71.00
20005;DHT22;68409;45.498;-73.582;2023-03-23T10:44:22;1.00;71.00
20005;DHT22;68409;45.498;-73.582;2023-03-23T10:47:03;1.00;71.40
20005;DHT22;68409;45.498;-73.582;2023-03-23T10:49:38;1.10;71.90
20005;DHT22;68409;45.498;-73.582;2023-03-23T10:55:17;1.20;72.20
20005;DHT22;68409;45.498;-73.582;2023-03-23T10:58:07;1.20;71.30
20005;DHT22;68409;45.498;-73.582;2023-03-23T11:00:43;1.10;71.90
20005;DHT22;68409;45.498;-73.582;2023-03-23T11:05:56;1.00;73.00
20005;DHT22;68409;45.498;-73.582;2023-03-23T11:08:28;1.10;73.10
20005;DHT22;68409;45.498;-73.582;2023-03-23T11:11:15;1.10;73.60
20005;DHT22;68409;45.498;-73.582;2023-03-23T11:13:46;1.00;74.20
20005;DHT22;68409;45.498;-73.582;2023-03-23T11:16:23;0.90;74.10
20005;DHT22;68409;45.498;-73.582;2023-03-23T11:18:50;1.00;74.40
20005;DHT22;68409;45.498;-73.582;2023-03-23T11:21:19;1.10;74.50
20005;DHT22;68409;45.498;-73.582;2023-03-23T11:24:08;1.00;73.90
20005;DHT22;68409;45.498;-73.582;2023-03-23T11:26:36;1.10;74.10
20005;DHT22;68409;45.498;-73.582;2023-03-23T11:29:11;1.10;73.90
20005;DHT22;68409;45.498;-73.582;2023-03-23T11:31:50;1.10;74.20
20005;DHT22;68409;45.498;-73.582;2023-03-23T11:34:30;1.10;74.00
20005;DHT22;68409;45.498;-73.582;2023-03-23T11:37:24;1.00;74.90
20005;DHT22;68409;45.498;-73.582;2023-03-23T11:39:58;1.00;75.50
20005;DHT22;68409;45.498;-73.582;2023-03-23T11:48:07;1.00;77.30
20005;DHT22;68409;45.498;-73.582;2023-03-23T11:51:26;1.10;77.70
20005;DHT22;68409;45.498;-73.582;2023-03-23T11:58:55;1.10;78.40
20005;DHT22;68409;45.498;-73.582;2023-03-23T12:04:31;1.50;79.20
20005;DHT22;68409;45.498;-73.582;2023-03-23T12:09:35;1.20;80.90
20005;DHT22;68409;45.498;-73.582;2023-03-23T12:15:21;1.30;82.40
20005;DHT22;68409;45.498;-73.582;2023-03-23T12:18:16;1.20;85.20
20005;DHT22;68409;45.498;-73.582;2023-03-23T12:21:10;1.20;85.90
20005;DHT22;68409;45.498;-73.582;2023-03-23T12:26:20;1.30;87.20
20005;DHT22;68409;45.498;-73.582;2023-03-23T12:29:11;1.20;88.10
20005;DHT22;68409;45.498;-73.582;2023-03-23T12:48:20;1.40;91.40
20005;DHT22;68409;45.498;-73.582;2023-03-23T12:51:03;1.50;91.90
20005;DHT22;68409;45.498;-73.582;2023-03-23T12:58:49;1.50;92.10
20005;DHT22;68409;45.498;-73.582;2023-03-23T13:01:22;1.50;92.70
20005;DHT22;68409;45.498;-73.582;2023-03-23T13:04:05;1.60;93.20
20005;DHT22;68409;45.498;-73.582;2023-03-23T13:06:40;1.60;93.50
20005;DHT22;68409;45.498;-73.582;2023-03-23T13:11:39;1.30;94.40
20005;DHT22;68409;45.498;-73.582;2023-03-23T13:14:16;1.30;95.10
20005;DHT22;68409;45.498;-73.582;2023-03-23T13:17:04;1.40;95.20
20005;DHT22;68409;45.498;-73.582;2023-03-23T13:22:36;1.50;95.80
20005;DHT22;68409;45.498;-73.582;2023-03-23T13:25:09;1.70;95.80
20005;DHT22;68409;45.498;-73.582;2023-03-23T13:27:37;1.60;96.00
20005;DHT22;68409;45.498;-73.582;2023-03-23T13:30:04;1.80;96.30
20005;DHT22;68409;45.498;-73.582;2023-03-23T13:32:40;1.90;95.80
20005;DHT22;68409;45.498;-73.582;2023-03-23T13:35:13;1.80;96.00
20005;DHT22;68409;45.498;-73.582;2023-03-23T13:37:45;1.80;96.70
20005;DHT22;68409;45.498;-73.582;2023-03-23T13:40:27;1.80;97.50
20005;DHT22;68409;45.498;-73.582;2023-03-23T13:42:57;1.90;97.70
20005;DHT22;68409;45.498;-73.582;2023-03-23T13:45:42;1.90;98.60
20005;DHT22;68409;45.498;-73.582;2023-03-23T13:51:22;2.10;99.90
20005;DHT22;68409;45.498;-73.582;2023-03-23T13:53:46;2.10;99.80
20005;DHT22;68409;45.498;-73.582;2023-03-23T13:56:35;2.10;99.90
20005;DHT22;68409;45.498;-73.582;2023-03-23T13:59:14;2.30;99.90
20005;DHT22;68409;45.498;-73.582;2023-03-23T14:01:42;2.30;99.90
20005;DHT22;68409;45.498;-73.582;2023-03-23T14:04:15;2.30;99.90
20005;DHT22;68409;45.498;-73.582;2023-03-23T14:06:44;2.40;99.90
20005;DHT22;68409;45.498;-73.582;2023-03-23T14:09:19;2.50;99.90
20005;DHT22;68409;45.498;-73.582;2023-03-23T14:12:03;2.50;99.90
20005;DHT22;68409;45.498;-73.582;2023-03-23T14:14:43;2.40;99.90
20005;DHT22;68409;45.498;-73.582;2023-03-23T14:17:18;2.50;99.90
20005;DHT22;68409;45.498;-73.582;2023-03-23T14:19:54;2.60;99.90
20005;DHT22;68409;45.498;-73.582;2023-03-23T14:22:35;2.70;99.90
20005;DHT22;68409;45.498;-73.582;2023-03-23T14:25:11;2.90;99.90
20005;DHT22;68409;45.498;-73.582;2023-03-23T14:27:39;2.90;99.90
20005;DHT22;68409;45.498;-73.582;2023-03-23T14:31:22;2.80;99.90
20005;DHT22;68409;45.498;-73.582;2023-03-23T14:33:54;2.70;99.90
20005;DHT22;68409;45.498;-73.582;2023-03-23T14:36:22;2.80;99.90
20005;DHT22;68409;45.498;-73.582;2023-03-23T14:41:24;2.80;99.90
20005;DHT22;68409;45.498;-73.582;2023-03-23T14:45:10;2.90;99.90
20005;DHT22;68409;45.498;-73.582;2023-03-23T14:47:56;3.00;99.90
20005;DHT22;68409;45.498;-73.582;2023-03-23T14:50:28;3.00;99.90
20005;DHT22;68409;45.498;-73.582;2023-03-23T14:53:09;2.90;99.90
20005;DHT22;68409;45.498;-73.582;2023-03-23T14:55:37;3.00;99.90
20005;DHT22;68409;45.498;-73.582;2023-03-23T14:58:14;3.20;99.90
20005;DHT22;68409;45.498;-73.582;2023-03-23T15:00:49;3.30;99.90
20005;DHT22;68409;45.498;-73.582;2023-03-23T15:03:18;3.60;99.90
20005;DHT22;68409;45.498;-73.582;2023-03-23T15:05:57;3.70;99.90
20005;DHT22;68409;45.498;-73.582;2023-03-23T15:08:34;3.60;99.90
20005;DHT22;68409;45.498;-73.582;2023-03-23T15:11:21;3.50;99.90
20005;DHT22;68409;45.498;-73.582;2023-03-23T15:13:55;3.70;99.90
20005;DHT22;68409;45.498;-73.582;2023-03-23T15:16:32;3.80;99.90
20005;DHT22;68409;45.498;-73.582;2023-03-23T15:19:03;4.00;99.90
20005;DHT22;68409;45.498;-73.582;2023-03-23T15:21:35;4.00;99.90
20005;DHT22;68409;45.498;-73.582;2023-03-23T15:24:17;3.90;99.90
20005;DHT22;68409;45.498;-73.582;2023-03-23T15:26:44;3.80;99.90
20005;DHT22;68409;45.498;-73.582;2023-03-23T15:29:22;3.80;99.90
20005;DHT22;68409;45.498;-73.582;2023-03-23T15:31:54;3.80;99.90
20005;DHT22;68409;45.498;-73.582;2023-03-23T15:34:32;3.70;99.90
20005;DHT22;68409;45.498;-73.582;2023-03-23T15:37:05;3.60;99.90
20005;DHT22;68409;45.498;-73.582;2023-03-23T15:39:32;3.60;99.90
20005;DHT22;68409;45.498;-73.582;2023-03-23T15:41:59;3.70;99.90
20005;DHT22;68409;45.498;-73.582;2023-03-23T15:44:32;3.60;99.90
20005;DHT22;68409;45.498;-73.582;2023-03-23T15:47:12;3.70;99.90
20005;DHT22;68409;45.498;-73.582;2023-03-23T15:49:42;3.60;99.90
20005;DHT22;68409;45.498;-73.582;2023-03-23T15:52:10;3.30;99.90
20005;DHT22;68409;45.498;-73.582;2023-03-23T15:54:38;3.20;99.90
20005;DHT22;68409;45.498;-73.582;2023-03-23T15:57:04;3.30;99.90
20005;DHT22;68409;45.498;-73.582;2023-03-23T15:59:30;3.20;99.90
20005;DHT22;68409;45.498;-73.582;2023-03-23T16:01:56;3.40;99.90
20005;DHT22;68409;45.498;-73.582;2023-03-23T16:04:22;3.30;99.90
20005;DHT22;68409;45.498;-73.582;2023-03-23T16:06:50;3.30;99.90
20005;DHT22;68409;45.498;-73.582;2023-03-23T16:09:19;3.40;99.90
20005;DHT22;68409;45.498;-73.582;2023-03-23T16:11:46;3.40;99.90
20005;DHT22;68409;45.498;-73.582;2023-03-23T16:14:12;3.60;99.90
20005;DHT22;68409;45.498;-73.582;2023-03-23T16:16:46;3.70;99.90
20005;DHT22;68409;45.498;-73.582;2023-03-23T16:19:14;3.80;99.90
20005;DHT22;68409;45.498;-73.582;2023-03-23T16:21:41;3.50;99.90
20005;DHT22;68409;45.498;-73.582;2023-03-23T16:24:09;3.60;99.90
20005;DHT22;68409;45.498;-73.582;2023-03-23T16:26:36;3.80;99.90
20005;DHT22;68409;45.498;-73.582;2023-03-23T16:29:12;4.20;99.90
20005;DHT22;68409;45.498;-73.582;2023-03-23T16:31:39;4.40;99.90
20005;DHT22;68409;45.498;-73.582;2023-03-23T16:34:06;4.30;99.90
20005;DHT22;68409;45.498;-73.582;2023-03-23T16:36:32;4.30;99.90
20005;DHT22;68409;45.498;-73.582;2023-03-23T16:38:59;4.20;99.90
20005;DHT22;68409;45.498;-73.582;2023-03-23T16:41:25;4.20;99.90
20005;DHT22;68409;45.498;-73.582;2023-03-23T16:43:51;4.30;99.90
20005;DHT22;68409;45.498;-73.582;2023-03-23T16:46:17;4.30;99.90
20005;DHT22;68409;45.498;-73.582;2023-03-23T16:48:44;4.30;99.90
20005;DHT22;68409;45.498;-73.582;2023-03-23T16:51:10;4.30;99.90
20005;DHT22;68409;45.498;-73.582;2023-03-23T16:53:36;4.40;99.90
20005;DHT22;68409;45.498;-73.582;2023-03-23T16:56:03;4.50;99.90
20005;DHT22;68409;45.498;-73.582;2023-03-23T16:58:29;4.70;99.90
20005;DHT22;68409;45.498;-73.582;2023-03-23T17:00:56;4.90;99.90
20005;DHT22;68409;45.498;-73.582;2023-03-23T17:03:22;4.90;99.90
20005;DHT22;68409;45.498;-73.582;2023-03-23T17:05:50;4.70;99.90
20005;DHT22;68409;45.498;-73.582;2023-03-23T17:08:17;4.70;99.90
20005;DHT22;68409;45.498;-73.582;2023-03-23T17:10:44;4.80;99.90
20005;DHT22;68409;45.498;-73.582;2023-03-23T17:13:10;5.00;99.90
20005;DHT22;68409;45.498;-73.582;2023-03-23T17:15:38;5.20;99.90
20005;DHT22;68409;45.498;-73.582;2023-03-23T17:18:05;5.50;99.90
20005;DHT22;68409;45.498;-73.582;2023-03-23T17:20:32;5.30;99.90
20005;DHT22;68409;45.498;-73.582;2023-03-23T17:22:58;5.30;99.90
20005;DHT22;68409;45.498;-73.582;2023-03-23T17:25:26;5.50;99.90
20005;DHT22;68409;45.498;-73.582;2023-03-23T17:27:52;5.70;99.90